Ayr, Australia
Current Conditions -  °F | °C
As of 6:30 PM on Wednesday 22 Oct 2014 (Local Time) from YBTL Reporting Station
Clear Clear  
Wind Chill: 75°   Ceiling: Unl
Heat Index: 75°   Visibility: 6mi
Dew Point: 61°   Wind: 17mph
Humidity: 61%   Direction: 90°E
Pressure: 30.06"   Gusts: NA
Location:  19.58°S, 147.41°E
Report Text: YBTL 220830Z AUTO 09015KT 9999 // NCD 24/16 Q1018
Loading
Personal Weather Stations






























Interactive Weather Map
Tropical Storm Tracking
New forecast layout! Learn more

10-Day Weather Forecast

Advertisements
Track Severe Weather on mobile